sensor_id;sensor_type;location;lat;lon;timestamp;P1;durP1;ratioP1;P2;durP2;ratioP2
47958;SDS011;33718;50.910;-1.514;2024-03-08T00:00:29;74.95;;;39.42;;
47958;SDS011;33718;50.910;-1.514;2024-03-08T00:04:35;73.03;;;39.90;;
47958;SDS011;33718;50.910;-1.514;2024-03-08T00:06:37;71.25;;;38.83;;
47958;SDS011;33718;50.910;-1.514;2024-03-08T00:08:38;77.97;;;40.78;;
47958;SDS011;33718;50.910;-1.514;2024-03-08T00:10:40;77.43;;;40.53;;
47958;SDS011;33718;50.910;-1.514;2024-03-08T00:12:42;73.95;;;39.35;;
47958;SDS011;33718;50.910;-1.514;2024-03-08T00:14:44;87.13;;;45.08;;
47958;SDS011;33718;50.910;-1.514;2024-03-08T00:16:46;80.93;;;43.08;;
47958;SDS011;33718;50.910;-1.514;2024-03-08T00:19:06;68.20;;;38.85;;
47958;SDS011;33718;50.910;-1.514;2024-03-08T00:21:08;77.07;;;40.38;;
47958;SDS011;33718;50.910;-1.514;2024-03-08T00:23:11;79.30;;;43.00;;
47958;SDS011;33718;50.910;-1.514;2024-03-08T00:25:13;80.93;;;43.95;;
47958;SDS011;33718;50.910;-1.514;2024-03-08T00:27:36;82.15;;;42.80;;
47958;SDS011;33718;50.910;-1.514;2024-03-08T00:29:38;78.65;;;39.45;;
47958;SDS011;33718;50.910;-1.514;2024-03-08T00:31:43;82.35;;;41.80;;
47958;SDS011;33718;50.910;-1.514;2024-03-08T00:33:45;81.25;;;42.90;;
47958;SDS011;33718;50.910;-1.514;2024-03-08T00:35:48;88.22;;;41.45;;
47958;SDS011;33718;50.910;-1.514;2024-03-08T00:37:51;80.70;;;43.80;;
47958;SDS011;33718;50.910;-1.514;2024-03-08T00:39:54;93.22;;;46.88;;
47958;SDS011;33718;50.910;-1.514;2024-03-08T00:41:56;83.55;;;42.33;;
47958;SDS011;33718;50.910;-1.514;2024-03-08T00:43:59;82.93;;;44.30;;
47958;SDS011;33718;50.910;-1.514;2024-03-08T00:46:03;81.28;;;43.53;;
47958;SDS011;33718;50.910;-1.514;2024-03-08T00:48:06;88.18;;;43.55;;
47958;SDS011;33718;50.910;-1.514;2024-03-08T00:50:09;88.00;;;46.30;;
47958;SDS011;33718;50.910;-1.514;2024-03-08T00:52:11;87.20;;;44.20;;
47958;SDS011;33718;50.910;-1.514;2024-03-08T00:54:32;85.20;;;43.47;;
47958;SDS011;33718;50.910;-1.514;2024-03-08T00:56:53;87.07;;;45.58;;
47958;SDS011;33718;50.910;-1.514;2024-03-08T00:59:14;80.45;;;41.85;;
47958;SDS011;33718;50.910;-1.514;2024-03-08T01:01:18;91.78;;;44.15;;
47958;SDS011;33718;50.910;-1.514;2024-03-08T01:03:19;90.75;;;44.13;;
47958;SDS011;33718;50.910;-1.514;2024-03-08T01:05:23;82.03;;;44.00;;
47958;SDS011;33718;50.910;-1.514;2024-03-08T01:07:28;83.53;;;43.40;;
47958;SDS011;33718;50.910;-1.514;2024-03-08T01:09:30;81.20;;;43.85;;
47958;SDS011;33718;50.910;-1.514;2024-03-08T01:11:33;87.35;;;43.17;;
47958;SDS011;33718;50.910;-1.514;2024-03-08T01:13:54;92.45;;;46.05;;
47958;SDS011;33718;50.910;-1.514;2024-03-08T01:15:55;85.85;;;43.75;;
47958;SDS011;33718;50.910;-1.514;2024-03-08T01:17:57;89.30;;;45.78;;
47958;SDS011;33718;50.910;-1.514;2024-03-08T01:19:58;92.05;;;45.05;;
47958;SDS011;33718;50.910;-1.514;2024-03-08T01:22:00;88.90;;;45.17;;
47958;SDS011;33718;50.910;-1.514;2024-03-08T01:24:02;87.00;;;44.60;;
47958;SDS011;33718;50.910;-1.514;2024-03-08T01:26:04;85.60;;;44.08;;
47958;SDS011;33718;50.910;-1.514;2024-03-08T01:28:06;81.40;;;42.88;;
47958;SDS011;33718;50.910;-1.514;2024-03-08T01:30:08;85.97;;;44.10;;
47958;SDS011;33718;50.910;-1.514;2024-03-08T01:32:11;89.78;;;46.13;;
47958;SDS011;33718;50.910;-1.514;2024-03-08T01:34:13;90.78;;;44.10;;
47958;SDS011;33718;50.910;-1.514;2024-03-08T01:36:14;91.07;;;48.40;;
47958;SDS011;33718;50.910;-1.514;2024-03-08T01:38:17;89.90;;;47.05;;
47958;SDS011;33718;50.910;-1.514;2024-03-08T01:40:18;99.65;;;48.40;;
47958;SDS011;33718;50.910;-1.514;2024-03-08T01:42:39;86.00;;;45.72;;
47958;SDS011;33718;50.910;-1.514;2024-03-08T01:44:41;101.80;;;48.75;;
47958;SDS011;33718;50.910;-1.514;2024-03-08T01:46:43;99.97;;;48.53;;
47958;SDS011;33718;50.910;-1.514;2024-03-08T01:48:46;104.47;;;48.20;;
47958;SDS011;33718;50.910;-1.514;2024-03-08T01:50:48;105.25;;;49.40;;
47958;SDS011;33718;50.910;-1.514;2024-03-08T01:52:49;99.20;;;48.67;;
47958;SDS011;33718;50.910;-1.514;2024-03-08T01:54:51;100.75;;;49.33;;
47958;SDS011;33718;50.910;-1.514;2024-03-08T01:57:11;96.18;;;47.90;;
47958;SDS011;33718;50.910;-1.514;2024-03-08T01:59:31;103.53;;;46.90;;
47958;SDS011;33718;50.910;-1.514;2024-03-08T02:01:33;101.75;;;47.92;;
47958;SDS011;33718;50.910;-1.514;2024-03-08T02:03:35;101.65;;;48.10;;
47958;SDS011;33718;50.910;-1.514;2024-03-08T02:05:37;96.40;;;46.30;;
47958;SDS011;33718;50.910;-1.514;2024-03-08T02:07:58;102.57;;;48.10;;
47958;SDS011;33718;50.910;-1.514;2024-03-08T02:10:18;103.00;;;47.88;;
47958;SDS011;33718;50.910;-1.514;2024-03-08T02:12:38;107.20;;;49.15;;
47958;SDS011;33718;50.910;-1.514;2024-03-08T02:14:40;103.88;;;50.25;;
47958;SDS011;33718;50.910;-1.514;2024-03-08T02:16:42;103.28;;;46.40;;
47958;SDS011;33718;50.910;-1.514;2024-03-08T02:18:43;112.85;;;48.97;;
47958;SDS011;33718;50.910;-1.514;2024-03-08T02:20:46;109.90;;;51.05;;
47958;SDS011;33718;50.910;-1.514;2024-03-08T02:22:49;101.75;;;48.45;;
47958;SDS011;33718;50.910;-1.514;2024-03-08T02:24:52;100.13;;;49.35;;
47958;SDS011;33718;50.910;-1.514;2024-03-08T02:26:53;105.78;;;49.95;;
47958;SDS011;33718;50.910;-1.514;2024-03-08T02:28:55;111.68;;;48.85;;
47958;SDS011;33718;50.910;-1.514;2024-03-08T02:30:56;98.38;;;51.03;;
47958;SDS011;33718;50.910;-1.514;2024-03-08T02:32:59;99.82;;;48.95;;
47958;SDS011;33718;50.910;-1.514;2024-03-08T02:35:01;106.38;;;49.97;;
47958;SDS011;33718;50.910;-1.514;2024-03-08T02:37:02;103.63;;;48.97;;
47958;SDS011;33718;50.910;-1.514;2024-03-08T02:39:04;104.97;;;49.40;;
47958;SDS011;33718;50.910;-1.514;2024-03-08T02:41:09;109.78;;;50.35;;
47958;SDS011;33718;50.910;-1.514;2024-03-08T02:43:12;108.68;;;50.22;;
47958;SDS011;33718;50.910;-1.514;2024-03-08T02:45:14;120.32;;;51.08;;
47958;SDS011;33718;50.910;-1.514;2024-03-08T02:47:15;111.05;;;49.00;;
47958;SDS011;33718;50.910;-1.514;2024-03-08T02:49:17;107.43;;;48.80;;
47958;SDS011;33718;50.910;-1.514;2024-03-08T02:51:18;110.95;;;49.88;;
47958;SDS011;33718;50.910;-1.514;2024-03-08T02:53:21;109.85;;;49.90;;
47958;SDS011;33718;50.910;-1.514;2024-03-08T02:55:23;110.97;;;51.17;;
47958;SDS011;33718;50.910;-1.514;2024-03-08T03:01:30;113.75;;;48.70;;
47958;SDS011;33718;50.910;-1.514;2024-03-08T03:03:33;103.88;;;47.50;;
47958;SDS011;33718;50.910;-1.514;2024-03-08T03:05:34;111.57;;;49.35;;
47958;SDS011;33718;50.910;-1.514;2024-03-08T03:07:37;108.47;;;49.45;;
47958;SDS011;33718;50.910;-1.514;2024-03-08T03:09:38;108.70;;;48.65;;
47958;SDS011;33718;50.910;-1.514;2024-03-08T03:11:43;106.22;;;48.35;;
47958;SDS011;33718;50.910;-1.514;2024-03-08T03:14:03;120.82;;;51.63;;
47958;SDS011;33718;50.910;-1.514;2024-03-08T03:16:05;111.75;;;47.38;;
47958;SDS011;33718;50.910;-1.514;2024-03-08T03:18:25;111.75;;;50.40;;
47958;SDS011;33718;50.910;-1.514;2024-03-08T03:20:28;116.03;;;48.80;;
47958;SDS011;33718;50.910;-1.514;2024-03-08T03:22:34;119.63;;;49.22;;
47958;SDS011;33718;50.910;-1.514;2024-03-08T03:24:36;117.15;;;49.47;;
47958;SDS011;33718;50.910;-1.514;2024-03-08T03:26:39;110.63;;;50.93;;
47958;SDS011;33718;50.910;-1.514;2024-03-08T03:28:43;121.07;;;49.78;;
47958;SDS011;33718;50.910;-1.514;2024-03-08T03:30:46;117.55;;;49.92;;
47958;SDS011;33718;50.910;-1.514;2024-03-08T03:34:51;110.47;;;44.35;;
47958;SDS011;33718;50.910;-1.514;2024-03-08T03:36:54;115.00;;;47.00;;
47958;SDS011;33718;50.910;-1.514;2024-03-08T03:41:46;108.60;;;46.53;;
47958;SDS011;33718;50.910;-1.514;2024-03-08T03:43:51;112.45;;;48.53;;
47958;SDS011;33718;50.910;-1.514;2024-03-08T03:46:11;111.05;;;49.50;;
47958;SDS011;33718;50.910;-1.514;2024-03-08T03:48:14;108.78;;;47.75;;
47958;SDS011;33718;50.910;-1.514;2024-03-08T03:50:17;104.50;;;47.20;;
47958;SDS011;33718;50.910;-1.514;2024-03-08T03:52:21;108.57;;;46.20;;
47958;SDS011;33718;50.910;-1.514;2024-03-08T03:54:23;112.05;;;48.45;;
47958;SDS011;33718;50.910;-1.514;2024-03-08T03:56:25;118.47;;;48.22;;
47958;SDS011;33718;50.910;-1.514;2024-03-08T03:58:29;117.22;;;50.22;;
47958;SDS011;33718;50.910;-1.514;2024-03-08T04:00:30;118.30;;;47.72;;
47958;SDS011;33718;50.910;-1.514;2024-03-08T04:02:32;116.68;;;50.28;;
47958;SDS011;33718;50.910;-1.514;2024-03-08T04:04:54;116.82;;;50.33;;
47958;SDS011;33718;50.910;-1.514;2024-03-08T04:06:57;118.22;;;51.13;;
47958;SDS011;33718;50.910;-1.514;2024-03-08T04:09:00;126.03;;;50.45;;
47958;SDS011;33718;50.910;-1.514;2024-03-08T04:11:03;128.02;;;50.90;;
47958;SDS011;33718;50.910;-1.514;2024-03-08T04:13:06;114.35;;;49.30;;
47958;SDS011;33718;50.910;-1.514;2024-03-08T04:15:10;124.43;;;49.10;;
47958;SDS011;33718;50.910;-1.514;2024-03-08T04:17:14;122.30;;;48.15;;
47958;SDS011;33718;50.910;-1.514;2024-03-08T04:19:15;117.65;;;49.10;;
47958;SDS011;33718;50.910;-1.514;2024-03-08T04:21:17;119.03;;;48.60;;
47958;SDS011;33718;50.910;-1.514;2024-03-08T04:23:38;109.35;;;46.63;;
47958;SDS011;33718;50.910;-1.514;2024-03-08T04:25:41;117.65;;;48.80;;
47958;SDS011;33718;50.910;-1.514;2024-03-08T04:27:43;120.50;;;48.80;;
47958;SDS011;33718;50.910;-1.514;2024-03-08T04:29:45;114.30;;;48.45;;
47958;SDS011;33718;50.910;-1.514;2024-03-08T04:31:48;114.28;;;47.25;;
47958;SDS011;33718;50.910;-1.514;2024-03-08T04:33:49;107.72;;;45.55;;
47958;SDS011;33718;50.910;-1.514;2024-03-08T04:35:51;118.90;;;48.83;;
47958;SDS011;33718;50.910;-1.514;2024-03-08T04:37:52;113.82;;;47.08;;
47958;SDS011;33718;50.910;-1.514;2024-03-08T04:39:54;119.97;;;49.63;;
47958;SDS011;33718;50.910;-1.514;2024-03-08T04:41:56;123.80;;;48.90;;
47958;SDS011;33718;50.910;-1.514;2024-03-08T04:44:02;122.55;;;49.28;;
47958;SDS011;33718;50.910;-1.514;2024-03-08T04:46:23;117.18;;;50.67;;
47958;SDS011;33718;50.910;-1.514;2024-03-08T04:48:43;133.18;;;50.20;;
47958;SDS011;33718;50.910;-1.514;2024-03-08T04:50:44;128.45;;;50.10;;
47958;SDS011;33718;50.910;-1.514;2024-03-08T04:52:46;130.07;;;50.75;;
47958;SDS011;33718;50.910;-1.514;2024-03-08T04:54:49;130.25;;;52.65;;
47958;SDS011;33718;50.910;-1.514;2024-03-08T04:56:50;137.70;;;52.30;;
47958;SDS011;33718;50.910;-1.514;2024-03-08T04:58:52;135.43;;;52.03;;
47958;SDS011;33718;50.910;-1.514;2024-03-08T05:00:54;138.90;;;52.60;;
47958;SDS011;33718;50.910;-1.514;2024-03-08T05:02:56;130.00;;;52.15;;
47958;SDS011;33718;50.910;-1.514;2024-03-08T05:04:58;144.45;;;52.65;;
47958;SDS011;33718;50.910;-1.514;2024-03-08T05:06:59;129.95;;;51.55;;
47958;SDS011;33718;50.910;-1.514;2024-03-08T05:09:02;131.20;;;52.30;;
47958;SDS011;33718;50.910;-1.514;2024-03-08T05:11:15;135.20;;;49.67;;
47958;SDS011;33718;50.910;-1.514;2024-03-08T05:13:35;126.47;;;49.97;;
47958;SDS011;33718;50.910;-1.514;2024-03-08T05:15:37;127.20;;;50.67;;
47958;SDS011;33718;50.910;-1.514;2024-03-08T05:17:58;134.30;;;49.92;;
47958;SDS011;33718;50.910;-1.514;2024-03-08T05:20:19;123.28;;;49.33;;
47958;SDS011;33718;50.910;-1.514;2024-03-08T05:22:39;128.32;;;49.05;;
47958;SDS011;33718;50.910;-1.514;2024-03-08T05:26:46;126.20;;;45.05;;
47958;SDS011;33718;50.910;-1.514;2024-03-08T05:28:48;119.53;;;47.80;;
47958;SDS011;33718;50.910;-1.514;2024-03-08T05:30:50;127.82;;;50.50;;
47958;SDS011;33718;50.910;-1.514;2024-03-08T05:32:51;127.28;;;49.05;;
47958;SDS011;33718;50.910;-1.514;2024-03-08T05:35:11;132.65;;;49.30;;
47958;SDS011;33718;50.910;-1.514;2024-03-08T05:37:13;125.30;;;50.30;;
47958;SDS011;33718;50.910;-1.514;2024-03-08T05:39:15;132.52;;;47.97;;
47958;SDS011;33718;50.910;-1.514;2024-03-08T05:41:17;127.82;;;48.72;;
47958;SDS011;33718;50.910;-1.514;2024-03-08T05:43:19;136.48;;;52.65;;
47958;SDS011;33718;50.910;-1.514;2024-03-08T05:45:21;126.43;;;47.10;;
47958;SDS011;33718;50.910;-1.514;2024-03-08T05:47:22;131.77;;;48.08;;
47958;SDS011;33718;50.910;-1.514;2024-03-08T05:49:42;127.53;;;48.35;;
47958;SDS011;33718;50.910;-1.514;2024-03-08T05:52:04;111.10;;;47.97;;
47958;SDS011;33718;50.910;-1.514;2024-03-08T05:54:06;114.65;;;47.30;;
47958;SDS011;33718;50.910;-1.514;2024-03-08T05:56:27;119.32;;;45.60;;
47958;SDS011;33718;50.910;-1.514;2024-03-08T05:58:30;122.68;;;47.30;;
47958;SDS011;33718;50.910;-1.514;2024-03-08T06:00:32;124.13;;;48.30;;
47958;SDS011;33718;50.910;-1.514;2024-03-08T06:02:34;138.07;;;50.67;;
47958;SDS011;33718;50.910;-1.514;2024-03-08T06:04:37;130.02;;;50.47;;
47958;SDS011;33718;50.910;-1.514;2024-03-08T06:06:39;117.18;;;45.17;;
47958;SDS011;33718;50.910;-1.514;2024-03-08T06:09:00;129.20;;;47.17;;
47958;SDS011;33718;50.910;-1.514;2024-03-08T06:11:10;120.55;;;47.17;;
47958;SDS011;33718;50.910;-1.514;2024-03-08T06:13:12;117.63;;;44.88;;
47958;SDS011;33718;50.910;-1.514;2024-03-08T06:15:13;114.70;;;44.88;;
47958;SDS011;33718;50.910;-1.514;2024-03-08T06:17:16;116.78;;;44.47;;
47958;SDS011;33718;50.910;-1.514;2024-03-08T06:19:19;126.35;;;45.35;;
47958;SDS011;33718;50.910;-1.514;2024-03-08T06:21:20;120.97;;;45.08;;
47958;SDS011;33718;50.910;-1.514;2024-03-08T06:23:24;120.93;;;47.22;;
47958;SDS011;33718;50.910;-1.514;2024-03-08T06:25:25;119.68;;;42.88;;
47958;SDS011;33718;50.910;-1.514;2024-03-08T06:27:27;117.53;;;44.63;;
47958;SDS011;33718;50.910;-1.514;2024-03-08T06:29:47;121.15;;;44.80;;
47958;SDS011;33718;50.910;-1.514;2024-03-08T06:31:50;115.13;;;42.33;;
47958;SDS011;33718;50.910;-1.514;2024-03-08T06:33:54;123.90;;;47.72;;
47958;SDS011;33718;50.910;-1.514;2024-03-08T06:35:57;118.88;;;46.13;;
47958;SDS011;33718;50.910;-1.514;2024-03-08T06:37:59;118.10;;;44.67;;
47958;SDS011;33718;50.910;-1.514;2024-03-08T06:40:02;120.70;;;48.05;;
47958;SDS011;33718;50.910;-1.514;2024-03-08T06:42:09;120.18;;;45.35;;
47958;SDS011;33718;50.910;-1.514;2024-03-08T06:44:12;121.93;;;46.67;;
47958;SDS011;33718;50.910;-1.514;2024-03-08T06:46:15;129.13;;;47.83;;
47958;SDS011;33718;50.910;-1.514;2024-03-08T06:48:17;127.70;;;46.00;;
47958;SDS011;33718;50.910;-1.514;2024-03-08T06:50:20;131.65;;;45.72;;
47958;SDS011;33718;50.910;-1.514;2024-03-08T06:52:41;114.32;;;45.40;;
47958;SDS011;33718;50.910;-1.514;2024-03-08T06:54:48;113.65;;;44.17;;
47958;SDS011;33718;50.910;-1.514;2024-03-08T06:56:50;107.35;;;44.15;;
47958;SDS011;33718;50.910;-1.514;2024-03-08T06:58:53;111.93;;;43.60;;
47958;SDS011;33718;50.910;-1.514;2024-03-08T07:00:55;120.88;;;46.60;;
47958;SDS011;33718;50.910;-1.514;2024-03-08T07:02:59;105.03;;;48.10;;
47958;SDS011;33718;50.910;-1.514;2024-03-08T07:05:05;110.65;;;44.65;;
47958;SDS011;33718;50.910;-1.514;2024-03-08T07:07:28;119.18;;;43.03;;
47958;SDS011;33718;50.910;-1.514;2024-03-08T07:09:33;105.93;;;43.83;;
47958;SDS011;33718;50.910;-1.514;2024-03-08T07:11:36;103.13;;;44.63;;
47958;SDS011;33718;50.910;-1.514;2024-03-08T07:13:38;98.43;;;42.70;;
47958;SDS011;33718;50.910;-1.514;2024-03-08T07:15:40;104.22;;;42.30;;
47958;SDS011;33718;50.910;-1.514;2024-03-08T07:17:43;99.03;;;41.97;;
47958;SDS011;33718;50.910;-1.514;2024-03-08T07:19:46;92.55;;;39.22;;
47958;SDS011;33718;50.910;-1.514;2024-03-08T07:21:50;98.97;;;42.35;;
47958;SDS011;33718;50.910;-1.514;2024-03-08T07:23:51;89.80;;;39.47;;
47958;SDS011;33718;50.910;-1.514;2024-03-08T07:26:02;92.10;;;40.40;;
47958;SDS011;33718;50.910;-1.514;2024-03-08T07:28:03;90.65;;;39.17;;
47958;SDS011;33718;50.910;-1.514;2024-03-08T07:30:24;81.40;;;36.30;;
47958;SDS011;33718;50.910;-1.514;2024-03-08T07:32:45;80.05;;;38.10;;
47958;SDS011;33718;50.910;-1.514;2024-03-08T07:34:47;74.45;;;37.65;;
47958;SDS011;33718;50.910;-1.514;2024-03-08T07:36:49;69.05;;;35.30;;
47958;SDS011;33718;50.910;-1.514;2024-03-08T07:38:52;61.45;;;31.63;;
47958;SDS011;33718;50.910;-1.514;2024-03-08T07:41:12;63.80;;;32.35;;
47958;SDS011;33718;50.910;-1.514;2024-03-08T07:43:16;59.55;;;31.38;;
47958;SDS011;33718;50.910;-1.514;2024-03-08T07:45:17;55.90;;;31.83;;
47958;SDS011;33718;50.910;-1.514;2024-03-08T07:47:19;55.95;;;30.42;;
47958;SDS011;33718;50.910;-1.514;2024-03-08T07:49:25;49.05;;;30.38;;
47958;SDS011;33718;50.910;-1.514;2024-03-08T07:51:26;53.90;;;29.23;;
47958;SDS011;33718;50.910;-1.514;2024-03-08T07:53:28;52.95;;;29.98;;
47958;SDS011;33718;50.910;-1.514;2024-03-08T07:55:30;46.83;;;27.33;;
47958;SDS011;33718;50.910;-1.514;2024-03-08T07:57:32;45.65;;;27.10;;
47958;SDS011;33718;50.910;-1.514;2024-03-08T07:59:34;48.08;;;27.83;;
47958;SDS011;33718;50.910;-1.514;2024-03-08T08:01:36;52.03;;;29.67;;
47958;SDS011;33718;50.910;-1.514;2024-03-08T08:03:38;47.53;;;28.92;;
47958;SDS011;33718;50.910;-1.514;2024-03-08T08:05:58;46.78;;;25.48;;
47958;SDS011;33718;50.910;-1.514;2024-03-08T08:07:59;43.88;;;25.42;;
47958;SDS011;33718;50.910;-1.514;2024-03-08T08:10:01;39.95;;;25.70;;
47958;SDS011;33718;50.910;-1.514;2024-03-08T08:12:02;45.65;;;26.98;;
47958;SDS011;33718;50.910;-1.514;2024-03-08T08:14:04;48.38;;;26.73;;
47958;SDS011;33718;50.910;-1.514;2024-03-08T08:16:06;44.95;;;27.20;;
47958;SDS011;33718;50.910;-1.514;2024-03-08T08:18:07;41.53;;;25.25;;
47958;SDS011;33718;50.910;-1.514;2024-03-08T08:20:11;41.50;;;25.13;;
47958;SDS011;33718;50.910;-1.514;2024-03-08T08:22:14;40.43;;;26.23;;
47958;SDS011;33718;50.910;-1.514;2024-03-08T08:24:15;41.60;;;25.58;;
47958;SDS011;33718;50.910;-1.514;2024-03-08T08:26:17;38.65;;;25.00;;
47958;SDS011;33718;50.910;-1.514;2024-03-08T08:28:19;39.08;;;24.30;;
47958;SDS011;33718;50.910;-1.514;2024-03-08T08:30:20;40.28;;;26.02;;
47958;SDS011;33718;50.910;-1.514;2024-03-08T08:32:22;37.33;;;25.30;;
47958;SDS011;33718;50.910;-1.514;2024-03-08T08:34:24;42.03;;;25.13;;
47958;SDS011;33718;50.910;-1.514;2024-03-08T08:36:27;45.08;;;25.63;;
47958;SDS011;33718;50.910;-1.514;2024-03-08T08:38:31;35.92;;;25.02;;
47958;SDS011;33718;50.910;-1.514;2024-03-08T08:40:33;44.60;;;26.52;;
47958;SDS011;33718;50.910;-1.514;2024-03-08T08:42:54;43.22;;;23.85;;
47958;SDS011;33718;50.910;-1.514;2024-03-08T08:44:58;40.53;;;24.77;;
47958;SDS011;33718;50.910;-1.514;2024-03-08T08:47:09;34.70;;;24.80;;
47958;SDS011;33718;50.910;-1.514;2024-03-08T08:49:16;39.85;;;25.58;;
47958;SDS011;33718;50.910;-1.514;2024-03-08T08:51:22;40.35;;;25.20;;
47958;SDS011;33718;50.910;-1.514;2024-03-08T08:53:24;37.35;;;24.25;;
47958;SDS011;33718;50.910;-1.514;2024-03-08T08:55:26;36.22;;;24.60;;
47958;SDS011;33718;50.910;-1.514;2024-03-08T08:57:28;36.65;;;23.85;;
47958;SDS011;33718;50.910;-1.514;2024-03-08T08:59:29;42.22;;;24.05;;
47958;SDS011;33718;50.910;-1.514;2024-03-08T09:01:31;38.72;;;25.15;;
47958;SDS011;33718;50.910;-1.514;2024-03-08T09:03:34;36.50;;;23.85;;
47958;SDS011;33718;50.910;-1.514;2024-03-08T09:05:36;37.58;;;24.70;;
47958;SDS011;33718;50.910;-1.514;2024-03-08T09:07:40;38.28;;;24.15;;
47958;SDS011;33718;50.910;-1.514;2024-03-08T09:09:42;39.30;;;23.67;;
47958;SDS011;33718;50.910;-1.514;2024-03-08T09:11:43;34.72;;;23.80;;
47958;SDS011;33718;50.910;-1.514;2024-03-08T09:13:45;38.30;;;23.77;;
47958;SDS011;33718;50.910;-1.514;2024-03-08T09:16:09;38.13;;;23.75;;
47958;SDS011;33718;50.910;-1.514;2024-03-08T09:18:12;35.63;;;22.85;;
47958;SDS011;33718;50.910;-1.514;2024-03-08T09:20:32;40.92;;;24.05;;
47958;SDS011;33718;50.910;-1.514;2024-03-08T09:22:33;40.03;;;22.17;;
47958;SDS011;33718;50.910;-1.514;2024-03-08T09:24:35;38.13;;;23.58;;
47958;SDS011;33718;50.910;-1.514;2024-03-08T09:26:37;38.58;;;24.08;;
47958;SDS011;33718;50.910;-1.514;2024-03-08T09:28:39;39.58;;;23.08;;
47958;SDS011;33718;50.910;-1.514;2024-03-08T09:30:40;32.35;;;23.05;;
47958;SDS011;33718;50.910;-1.514;2024-03-08T09:32:46;35.72;;;22.65;;
47958;SDS011;33718;50.910;-1.514;2024-03-08T09:34:48;33.70;;;23.05;;
47958;SDS011;33718;50.910;-1.514;2024-03-08T09:36:49;34.58;;;22.63;;
47958;SDS011;33718;50.910;-1.514;2024-03-08T09:38:54;34.05;;;22.30;;
47958;SDS011;33718;50.910;-1.514;2024-03-08T09:40:56;30.02;;;21.73;;
47958;SDS011;33718;50.910;-1.514;2024-03-08T09:42:58;34.85;;;23.88;;
47958;SDS011;33718;50.910;-1.514;2024-03-08T09:45:01;34.97;;;21.65;;
47958;SDS011;33718;50.910;-1.514;2024-03-08T09:47:04;32.90;;;21.60;;
47958;SDS011;33718;50.910;-1.514;2024-03-08T09:51:10;31.05;;;21.02;;
47958;SDS011;33718;50.910;-1.514;2024-03-08T09:53:17;30.67;;;22.10;;
47958;SDS011;33718;50.910;-1.514;2024-03-08T09:55:20;29.98;;;20.63;;
47958;SDS011;33718;50.910;-1.514;2024-03-08T09:57:25;35.40;;;22.95;;
47958;SDS011;33718;50.910;-1.514;2024-03-08T09:59:45;34.10;;;20.95;;
47958;SDS011;33718;50.910;-1.514;2024-03-08T10:02:11;33.10;;;21.60;;
47958;SDS011;33718;50.910;-1.514;2024-03-08T10:04:14;32.10;;;22.05;;
47958;SDS011;33718;50.910;-1.514;2024-03-08T10:06:18;30.60;;;20.88;;
47958;SDS011;33718;50.910;-1.514;2024-03-08T10:08:23;34.75;;;22.30;;
47958;SDS011;33718;50.910;-1.514;2024-03-08T10:10:45;34.15;;;22.00;;
47958;SDS011;33718;50.910;-1.514;2024-03-08T10:13:08;30.58;;;21.65;;
47958;SDS011;33718;50.910;-1.514;2024-03-08T10:15:29;31.80;;;22.73;;
47958;SDS011;33718;50.910;-1.514;2024-03-08T10:17:34;29.40;;;22.23;;
47958;SDS011;33718;50.910;-1.514;2024-03-08T10:19:36;28.27;;;20.87;;
47958;SDS011;33718;50.910;-1.514;2024-03-08T10:21:47;27.92;;;20.83;;
47958;SDS011;33718;50.910;-1.514;2024-03-08T10:24:10;29.05;;;19.85;;
47958;SDS011;33718;50.910;-1.514;2024-03-08T10:26:13;33.85;;;21.23;;
47958;SDS011;33718;50.910;-1.514;2024-03-08T10:28:20;28.65;;;20.27;;
47958;SDS011;33718;50.910;-1.514;2024-03-08T10:30:22;28.88;;;20.42;;
47958;SDS011;33718;50.910;-1.514;2024-03-08T10:32:24;25.60;;;18.67;;
47958;SDS011;33718;50.910;-1.514;2024-03-08T10:34:26;29.17;;;19.65;;
47958;SDS011;33718;50.910;-1.514;2024-03-08T10:36:28;32.17;;;20.83;;
47958;SDS011;33718;50.910;-1.514;2024-03-08T10:38:30;32.15;;;21.17;;
47958;SDS011;33718;50.910;-1.514;2024-03-08T10:40:52;30.17;;;20.35;;
47958;SDS011;33718;50.910;-1.514;2024-03-08T10:42:56;29.35;;;20.17;;
47958;SDS011;33718;50.910;-1.514;2024-03-08T10:45:23;34.70;;;21.33;;
47958;SDS011;33718;50.910;-1.514;2024-03-08T10:47:26;29.30;;;18.10;;
47958;SDS011;33718;50.910;-1.514;2024-03-08T10:49:37;29.98;;;19.30;;
47958;SDS011;33718;50.910;-1.514;2024-03-08T10:51:40;29.85;;;17.88;;
47958;SDS011;33718;50.910;-1.514;2024-03-08T10:54:01;30.38;;;20.17;;
47958;SDS011;33718;50.910;-1.514;2024-03-08T10:56:04;30.80;;;19.95;;
47958;SDS011;33718;50.910;-1.514;2024-03-08T10:58:06;28.00;;;17.35;;
47958;SDS011;33718;50.910;-1.514;2024-03-08T11:00:09;25.65;;;18.83;;
47958;SDS011;33718;50.910;-1.514;2024-03-08T11:02:12;23.83;;;17.45;;
47958;SDS011;33718;50.910;-1.514;2024-03-08T11:04:14;29.13;;;19.45;;
47958;SDS011;33718;50.910;-1.514;2024-03-08T11:06:17;28.23;;;18.38;;
47958;SDS011;33718;50.910;-1.514;2024-03-08T11:08:38;26.05;;;18.10;;
47958;SDS011;33718;50.910;-1.514;2024-03-08T11:10:53;26.33;;;17.98;;
47958;SDS011;33718;50.910;-1.514;2024-03-08T11:12:57;24.20;;;16.95;;
47958;SDS011;33718;50.910;-1.514;2024-03-08T11:15:00;26.50;;;17.92;;
47958;SDS011;33718;50.910;-1.514;2024-03-08T11:17:13;26.30;;;17.15;;
47958;SDS011;33718;50.910;-1.514;2024-03-08T11:19:23;26.38;;;17.90;;
47958;SDS011;33718;50.910;-1.514;2024-03-08T11:21:25;31.48;;;17.52;;
47958;SDS011;33718;50.910;-1.514;2024-03-08T11:23:28;32.20;;;14.80;;
47958;SDS011;33718;50.910;-1.514;2024-03-08T11:25:36;23.50;;;15.27;;
47958;SDS011;33718;50.910;-1.514;2024-03-08T11:27:41;25.25;;;16.10;;
47958;SDS011;33718;50.910;-1.514;2024-03-08T11:30:00;24.30;;;14.73;;
47958;SDS011;33718;50.910;-1.514;2024-03-08T11:32:11;29.70;;;15.65;;
47958;SDS011;33718;50.910;-1.514;2024-03-08T11:34:15;28.20;;;15.93;;
47958;SDS011;33718;50.910;-1.514;2024-03-08T11:36:20;24.95;;;17.10;;
47958;SDS011;33718;50.910;-1.514;2024-03-08T11:38:23;23.75;;;16.05;;
47958;SDS011;33718;50.910;-1.514;2024-03-08T11:40:26;26.15;;;16.20;;
47958;SDS011;33718;50.910;-1.514;2024-03-08T11:42:27;25.13;;;15.43;;
47958;SDS011;33718;50.910;-1.514;2024-03-08T11:44:29;20.83;;;14.93;;
47958;SDS011;33718;50.910;-1.514;2024-03-08T11:46:33;27.00;;;16.58;;
47958;SDS011;33718;50.910;-1.514;2024-03-08T11:48:35;22.40;;;15.98;;
47958;SDS011;33718;50.910;-1.514;2024-03-08T11:50:39;28.27;;;15.88;;
47958;SDS011;33718;50.910;-1.514;2024-03-08T11:52:43;22.67;;;13.48;;
47958;SDS011;33718;50.910;-1.514;2024-03-08T11:54:53;19.58;;;13.93;;
47958;SDS011;33718;50.910;-1.514;2024-03-08T11:57:00;26.00;;;15.90;;
47958;SDS011;33718;50.910;-1.514;2024-03-08T11:59:02;23.15;;;14.43;;
47958;SDS011;33718;50.910;-1.514;2024-03-08T12:01:04;20.27;;;14.70;;
47958;SDS011;33718;50.910;-1.514;2024-03-08T12:03:07;23.83;;;15.05;;
47958;SDS011;33718;50.910;-1.514;2024-03-08T12:05:11;22.83;;;14.52;;
47958;SDS011;33718;50.910;-1.514;2024-03-08T12:07:16;22.13;;;14.07;;
47958;SDS011;33718;50.910;-1.514;2024-03-08T12:09:20;21.23;;;13.55;;
47958;SDS011;33718;50.910;-1.514;2024-03-08T12:11:23;22.90;;;13.85;;
47958;SDS011;33718;50.910;-1.514;2024-03-08T12:13:45;19.83;;;13.55;;